CST,Max TemperatureF,Mean TemperatureF,Min TemperatureF,Max Dew PointF,MeanDew PointF,Min DewpointF,Max Humidity, Mean Humidity, Min Humidity, Max Sea Level PressureIn, Mean Sea Level PressureIn, Min Sea Level PressureIn, Max VisibilityMiles, Mean VisibilityMiles, Min VisibilityMiles, Max Wind SpeedMPH, Mean Wind SpeedMPH, Max Gust SpeedMPH,PrecipitationIn, CloudCover, Events, WindDirDegrees
2013-2-1,60,46,32,35,31,25,82,58,29,30.40,30.34,30.30,10,10,5,15,6,,0.00,2,,330
2013-2-2,61,43,25,46,31,16,88,61,24,30.37,30.28,30.17,10,10,10,10,4,,0.00,1,,187
2013-2-3,66,54,41,48,40,28,100,72,25,30.25,30.18,30.11,10,8,0,13,4,,0.05,2,Fog-Rain,321
2013-2-4,62,50,37,52,43,32,93,71,34,30.13,30.07,30.00,10,10,10,8,3,,0.00,6,Rain,150
2013-2-5,66,59,52,61,56,52,100,95,71,30.06,30.02,29.98,10,10,3,8,3,,0.27,6,Rain,65
2013-2-6,71,62,53,59,56,53,100,93,59,30.15,30.08,30.04,10,4,0,8,4,,0.00,7,Fog,37
2013-2-7,71,62,54,64,58,54,100,95,64,30.05,29.91,29.80,10,5,0,17,6,30,1.46,6,Fog-Rain-Thunderstorm,64
2013-2-8,68,58,48,60,53,48,100,93,63,30.15,30.01,29.94,10,4,0,10,1,,0.00,3,Fog,318
2013-2-9,66,54,41,48,42,34,100,74,31,30.26,30.19,30.16,10,9,1,10,7,,0.00,1,,56
2013-2-10,69,56,42,68,58,42,97,86,73,30.17,30.10,30.03,10,10,8,21,11,32,0.02,6,Rain,143
2013-2-11,74,66,57,70,64,55,100,91,83,30.11,30.07,30.02,10,8,2,22,15,31,0.11,7,Rain-Thunderstorm,165
2013-2-12,71,64,57,70,63,55,100,91,75,30.05,29.90,29.78,10,7,2,22,9,31,0.44,8,Rain-Thunderstorm,175
2013-2-13,69,58,46,70,56,43,100,86,54,30.05,29.88,29.78,10,10,7,16,11,21,0.06,6,Rain,280
2013-2-14,55,45,34,42,38,33,94,80,54,30.15,30.09,30.03,10,10,10,12,5,,0.00,2,,3
2013-2-15,65,48,30,43,36,29,100,70,31,30.17,30.09,30.04,10,9,2,9,3,,0.00,1,,297
2013-2-16,53,44,32,40,27,14,77,49,24,30.27,30.12,30.04,10,10,10,22,11,31,0.00,1,Rain,316
2013-2-17,54,39,24,28,21,10,85,56,19,30.39,30.31,30.26,10,10,10,9,3,,0.00,0,,257
2013-2-18,61,46,30,49,37,27,87,60,41,30.33,30.25,30.09,10,10,10,18,8,26,0.00,2,,134
2013-2-19,66,55,39,61,52,27,95,77,31,30.20,30.07,30.01,10,8,1,24,14,32,0.54,6,Rain,231
2013-2-20,58,45,32,34,26,17,84,53,23,30.24,30.17,30.04,10,10,10,9,5,,0.00,3,,18
2013-2-21,66,49,32,63,45,29,98,71,36,30.13,30.02,29.96,10,9,3,14,7,20,0.00,5,,126
2013-2-22,70,67,64,70,67,64,100,99,94,29.99,29.93,29.89,10,3,0,17,8,25,2.94,8,Fog-Rain-Thunderstorm,144
2013-2-23,71,63,55,70,63,55,100,99,94,29.95,29.88,29.79,10,8,0,14,8,21,0.99,7,Fog-Rain-Thunderstorm,307
2013-2-24,72,61,50,56,51,48,100,83,42,30.00,29.94,29.85,10,6,0,9,7,,0.34,6,Fog-Rain-Thunderstorm,41
2013-2-25,65,60,55,65,59,55,100,98,78,29.90,29.78,29.54,10,6,1,16,9,24,2.65,8,Rain-Thunderstorm,79
2013-2-26,66,58,50,66,53,42,100,78,49,29.91,29.66,29.52,10,9,2,21,12,26,0.55,5,Rain,230
2013-2-27,63,52,41,45,41,36,97,66,38,30.03,29.97,29.92,10,10,9,14,5,,0.00,3,,257
2013-2-28,59,51,43,38,32,27,83,48,31,30.06,30.03,29.98,10,10,7,15,9,18,0.00,5,,318